Time;durP1;ratioP1;P1;durP2;ratioP2;P2;SDS_P1;SDS_P2;PMS_P1;PMS_P2;Temp;Humidity;BMP_temperature;BMP_pressure;BME280_temperature;BME280_humidity;BME280_pressure;Samples;Min_cycle;Max_cycle;Signal;HPM_P1;HPM_P2
2021/10/11 05:36:29;;;;;;;47.08;19.58;;;;;;;-0.21;77.28;100876.87;372731;141;880988;-57
2021/10/11 05:37:31;;;;;;;47.98;20.93;;;;;;;-0.26;77.47;100875.77;359013;144;856792;-58
2021/10/11 05:38:33;;;;;;;42.23;17.54;;;;;;;-0.21;77.92;100881.10;345146;153;856194;-57
2021/10/11 05:39:35;;;;;;;39.39;17.51;;;;;;;-0.10;78.20;100884.17;345580;153;864372;-59
2021/10/11 05:40:37;;;;;;;37.23;16.49;;;;;;;0.03;78.24;100880.59;343376;153;864352;-58
2021/10/11 05:41:39;;;;;;;37.97;16.91;;;;;;;0.21;78.19;100884.05;345118;153;856619;-54
2021/10/11 05:42:41;;;;;;;41.19;16.36;;;;;;;0.41;77.91;100881.59;344456;153;856285;-60
2021/10/11 05:43:43;;;;;;;35.34;14.12;;;;;;;0.68;77.38;100886.29;343852;153;863792;-58
2021/10/11 05:44:44;;;;;;;36.27;15.22;;;;;;;0.93;76.54;100892.54;344053;153;864039;-57
2021/10/11 05:45:46;;;;;;;33.36;14.81;;;;;;;1.21;75.52;100888.70;344944;153;856899;-56
2021/10/11 05:46:48;;;;;;;31.62;14.15;;;;;;;1.48;74.47;100890.73;342612;153;864668;-55
2021/10/11 05:47:50;;;;;;;27.71;14.05;;;;;;;1.75;73.30;100891.08;345118;153;857445;-57
2021/10/11 05:48:52;;;;;;;28.76;14.75;;;;;;;2.05;72.18;100890.63;346051;153;856163;-56
2021/10/11 05:49:54;;;;;;;29.66;14.89;;;;;;;2.33;71.11;100889.25;345467;153;856209;-58
2021/10/11 05:50:55;;;;;;;35.55;16.43;;;;;;;;;;345141;153;864192;-57
2021/10/11 05:51:57;;;;;;;31.64;17.02;;;;;;;;;;345601;153;856436;-58
2021/10/11 05:52:59;;;;;;;38.71;17.89;;;;;;;;;;345718;153;864159;-57
2021/10/11 05:54:00;;;;;;;36.54;17.73;;;;;;;;;;345603;153;863580;-57
2021/10/11 05:55:02;;;;;;;35.46;18.12;;;;;;;;;;345174;153;856593;-58
2021/10/11 05:56:04;;;;;;;33.26;17.37;;;;;;;;;;343378;155;866367;-58
2021/10/11 05:57:05;;;;;;;37.28;18.55;;;;;;;;;;344116;153;865103;-57
2021/10/11 05:58:07;;;;;;;38.50;18.51;;;;;;;;;;343535;154;865199;-56
2021/10/11 05:59:08;;;;;;;31.99;18.69;;;;;;;;;;343974;156;864555;-58
2021/10/11 06:00:11;;;;;;;39.43;19.99;;;;;;;;;;344500;153;857065;-58
2021/10/11 06:01:13;;;;;;;38.57;20.00;;;;;;;;;;344474;153;856986;-58
2021/10/11 06:02:14;;;;;;;36.52;19.42;;;;;;;;;;344000;153;859512;-58
2021/10/11 06:03:16;;;;;;;33.76;19.57;;;;;;;;;;343836;153;856421;-59
2021/10/11 06:04:18;;;;;;;39.86;21.03;;;;;;;;;;343836;153;856542;-58
2021/10/11 06:05:20;;;;;;;34.05;19.75;;;;;;;;;;344171;153;857526;-58
2021/10/11 06:06:22;;;;;;;40.59;20.21;;;;;;;;;;343925;153;857376;-58
2021/10/11 06:07:23;;;;;;;44.01;21.71;;;;;;;;;;343804;154;857444;-59
2021/10/11 06:08:26;;;;;;;37.31;20.42;;;;;;;;;;344281;153;859190;-57
2021/10/11 06:09:27;;;;;;;38.82;20.72;;;;;;;;;;344087;153;858977;-59
2021/10/11 06:10:29;;;;;;;39.13;21.15;;;;;;;;;;344230;156;858290;-58
2021/10/11 06:11:31;;;;;;;40.30;21.62;;;;;;;;;;343998;153;858646;-58
2021/10/11 06:12:33;;;;;;;38.76;20.94;;;;;;;;;;342970;153;864966;-59
2021/10/11 06:13:34;;;;;;;40.22;22.76;;;;;;;;;;344499;153;864107;-61
2021/10/11 06:14:36;;;;;;;38.76;20.97;;;;;;;;;;344551;153;863939;-60
2021/10/11 06:15:37;;;;;;;39.00;21.86;;;;;;;;;;344980;153;856817;-58
2021/10/11 06:16:39;;;;;;;43.31;21.88;;;;;;;;;;337426;156;857327;-60
2021/10/11 06:17:41;;;;;;;58.11;26.06;;;;;;;;;;337313;156;858676;-60
2021/10/11 06:18:42;;;;;;;67.66;28.68;;;;;;;;;;344109;153;859839;-61
2021/10/11 06:19:44;;;;;;;57.26;26.55;;;;;;;;;;343380;153;858427;-59
2021/10/11 06:20:46;;;;;;;73.33;31.05;;;;;;;;;;344270;153;864983;-57
2021/10/11 06:21:47;;;;;;;54.81;26.11;;;;;;;;;;343834;154;865040;-58
2021/10/11 06:22:49;;;;;;;68.30;28.24;;;;;;;;;;343888;153;866548;-57
2021/10/11 06:23:52;;;;;;;52.96;26.14;;;;;;;;;;344770;153;856971;-56
2021/10/11 06:24:54;;;;;;;54.01;26.39;;;;;;;;;;344027;153;856947;-56
2021/10/11 06:25:56;;;;;;;51.75;24.23;;;;;;;;;;344196;153;856718;-57
2021/10/11 06:26:58;;;;;;;45.79;23.07;;;;;;;;;;343616;152;857409;-56
2021/10/11 06:28:00;;;;;;;40.64;21.88;;;;;;;;;;324128;162;858378;-58
2021/10/11 06:29:01;;;;;;;46.29;22.56;;;;;;;;;;324413;163;856658;-57
2021/10/11 06:30:03;;;;;;;40.20;21.79;;;;;;;;;;324595;162;862892;-58
2021/10/11 06:31:05;;;;;;;77.64;32.77;;;;;;;;;;317957;166;856493;-58
2021/10/11 06:32:06;;;;;;;71.07;32.20;;;;;;;;;;320778;165;856716;-58
2021/10/11 06:33:08;;;;;;;47.08;24.89;;;;;;;;;;318652;165;864157;-57
2021/10/11 06:34:09;;;;;;;46.97;22.85;;;;;;;;;;319733;165;858974;-57
2021/10/11 06:35:11;;;;;;;48.96;24.55;;;;;;;;;;318270;165;856366;-57
2021/10/11 06:36:13;;;;;;;59.69;25.39;;;;;;;;;;314944;168;856898;-56
2021/10/11 06:37:15;;;;;;;54.63;26.11;;;;;;;;;;315357;168;863758;-57
2021/10/11 06:38:16;;;;;;;54.09;26.44;;;;;;;;;;315934;168;857305;-57
2021/10/11 06:39:18;;;;;;;67.79;30.01;;;;;;;;;;315554;168;856836;-58
2021/10/11 06:40:20;;;;;;;71.07;29.93;;;;;;;;;;314935;168;856382;-57
2021/10/11 06:41:21;;;;;;;71.08;32.89;;;;;;;;;;316093;168;856747;-58
2021/10/11 06:42:23;;;;;;;90.84;37.22;;;;;;;;;;316137;168;856341;-58
2021/10/11 06:43:24;;;;;;;131.49;46.19;;;;;;;;;;315131;169;864717;-58
2021/10/11 06:44:26;;;;;;;112.76;43.19;;;;;;;;;;307729;172;864990;-58
2021/10/11 06:45:28;;;;;;;104.72;40.86;;;;;;;;;;309927;172;856461;-58
2021/10/11 06:46:29;;;;;;;89.95;38.00;;;;;;;;;;309861;172;857892;-58
2021/10/11 06:47:31;;;;;;;81.59;36.71;;;;;;;;;;309700;171;864530;-58
2021/10/11 06:48:32;;;;;;;81.74;37.28;;;;;;;;;;307749;172;864726;-56
2021/10/11 06:49:34;;;;;;;81.06;36.77;;;;;;;;;;307256;172;857615;-57
2021/10/11 06:50:36;;;;;;;75.99;35.97;;;;;;;;;;309101;171;864239;-58
2021/10/11 06:51:38;;;;;;;63.59;31.29;;;;;;;;;;309433;171;856467;-56
2021/10/11 06:52:39;;;;;;;66.26;31.25;;;;;;;;;;312867;169;864163;-58
2021/10/11 06:53:41;;;;;;;60.48;30.88;;;;;;;;;;313262;169;864123;-58
2021/10/11 06:54:42;;;;;;;65.20;30.40;;;;;;;;;;313431;169;864064;-58
2021/10/11 06:55:44;;;;;;;60.29;29.21;;;;;;;;;;320442;165;864594;-58
2021/10/11 06:56:46;;;;;;;60.80;29.71;;;;;;;;;;315015;169;864530;-57
2021/10/11 06:57:47;;;;;;;56.70;28.94;;;;;;;;;;307972;172;864571;-58
2021/10/11 06:58:49;;;;;;;53.21;27.01;;;;;;;;;;311587;170;863895;-57
2021/10/11 06:59:50;;;;;;;58.11;27.45;;;;;;;;;;312142;170;857313;-57
2021/10/11 07:00:53;;;;;;;55.96;26.99;;;;;;;;;;311559;170;863821;-58
2021/10/11 07:01:54;;;;;;;56.15;26.14;;;;;;;;;;311380;170;856500;-59
2021/10/11 07:02:56;;;;;;;52.00;25.26;;;;;;;;;;311723;170;857095;-59
2021/10/11 07:03:58;;;;;;;53.64;26.04;;;;;;;;;;321006;165;863958;-57
2021/10/11 07:05:08;;;;;;;53.01;25.13;;;;;;;;;;320976;165;864217;-60
2021/10/11 07:06:06;;;;;;;54.49;25.33;;;;;;;;;;320815;165;863844;-60
2021/10/11 07:07:07;;;;;;;55.65;26.61;;;;;;;;;;308493;172;856753;-60
2021/10/11 07:08:10;;;;;;;46.95;26.19;;;;;;;;;;307955;171;856486;-58
2021/10/11 07:09:11;;;;;;;47.70;24.31;;;;;;;;;;309760;171;856733;-59
2021/10/11 07:10:14;;;;;;;47.91;25.20;;;;;;;;;;310498;171;856642;-58
2021/10/11 07:11:16;;;;;;;45.33;24.77;;;;;;;;;;310022;171;856297;-59
2021/10/11 07:12:17;;;;;;;54.89;25.05;;;;;;;;;;310183;171;856358;-58
2021/10/11 07:13:19;;;;;;;50.28;24.65;;;;;;;;;;309739;171;857572;-59
2021/10/11 07:14:20;;;;;;;51.08;25.63;;;;;;;;;;311016;171;856615;-60
2021/10/11 07:17:12;;;;;;;54.69;25.09;;;;;;;9.86;50.56;100830.95;370465;142;881979;-59
2021/10/11 07:18:13;;;;;;;53.65;25.50;;;;;;;9.87;50.54;100839.59;363306;145;856389;-60
2021/10/11 07:19:15;;;;;;;48.19;25.48;;;;;;;9.94;50.16;100836.20;363260;145;856344;-60
2021/10/11 07:20:19;;;;;;;48.82;24.72;;;;;;;10.00;49.87;100830.20;362813;147;863914;-59
2021/10/11 07:21:20;;;;;;;49.89;24.40;;;;;;;10.06;49.80;100832.84;363868;145;856104;-59
2021/10/11 07:22:22;;;;;;;49.33;25.31;;;;;;;10.16;49.79;100838.97;363737;145;856310;-60
2021/10/11 07:23:24;;;;;;;51.66;24.99;;;;;;;10.27;49.82;100839.07;364024;145;856231;-58
2021/10/11 07:24:26;;;;;;;52.10;24.29;;;;;;;10.27;49.82;100839.07;362832;147;863999;-59
2021/10/11 07:25:27;;;;;;;44.54;22.61;;;;;;;10.37;47.34;100830.52;363556;145;864026;-58
2021/10/11 07:26:30;;;;;;;54.01;23.66;;;;;;;10.45;49.32;100838.36;363466;145;864151;-58
2021/10/11 07:27:32;;;;;;;47.47;23.51;;;;;;;;;;362868;145;856434;-58
2021/10/11 07:28:33;;;;;;;49.76;23.46;;;;;;;;;;362998;145;859865;-56
2021/10/11 07:29:35;;;;;;;58.50;25.21;;;;;;;;;;363504;146;864379;-59
2021/10/11 07:30:38;;;;;;;52.54;24.99;;;;;;;;;;363421;145;863734;-60
2021/10/11 07:31:40;;;;;;;49.47;23.34;;;;;;;;;;364139;145;856310;-60
2021/10/11 07:32:42;;;;;;;45.18;22.86;;;;;;;;;;363761;145;864004;-60
2021/10/11 07:33:43;;;;;;;44.44;24.18;;;;;;;;;;363404;145;864638;-63
2021/10/11 07:34:45;;;;;;;48.85;23.26;;;;;;;;;;362891;147;863931;-62
2021/10/11 07:35:46;;;;;;;50.71;23.61;;;;;;;;;;363856;145;864052;-64
2021/10/11 07:36:48;;;;;;;42.29;22.48;;;;;;;;;;364255;145;857022;-66
2021/10/11 07:37:50;;;;;;;46.46;22.57;;;;;;;;;;364622;145;857426;-64
2021/10/11 07:38:52;;;;;;;47.83;22.57;;;;;;;;;;364360;145;864007;-62
2021/10/11 07:39:54;;;;;;;43.66;22.46;;;;;;;;;;363929;144;856953;-59
2021/10/11 07:40:57;;;;;;;47.17;22.48;;;;;;;;;;351527;150;856950;-63
2021/10/11 07:42:00;;;;;;;49.46;21.95;;;;;;;;;;351567;149;856954;-62
2021/10/11 07:43:01;;;;;;;50.92;24.47;;;;;;;;;;363718;145;856262;-63
2021/10/11 07:44:03;;;;;;;42.25;22.76;;;;;;;;;;363294;145;862871;-63
2021/10/11 07:45:05;;;;;;;43.21;22.35;;;;;;;;;;363423;146;864089;-62
2021/10/11 07:46:08;;;;;;;46.95;23.79;;;;;;;;;;364076;145;856140;-62
2021/10/11 07:47:10;;;;;;;48.14;24.95;;;;;;;;;;357383;148;856768;-62
2021/10/11 07:48:11;;;;;;;42.06;23.24;;;;;;;;;;350642;150;856286;-65
2021/10/11 07:49:13;;;;;;;49.39;23.37;;;;;;;;;;357260;147;863933;-63
2021/10/11 07:50:16;;;;;;;48.35;21.80;;;;;;;;;;363491;145;863908;-60
2021/10/11 07:51:17;;;;;;;48.05;22.13;;;;;;;;;;363841;145;863732;-65
2021/10/11 07:52:19;;;;;;;36.75;19.77;;;;;;;;;;363756;145;856292;-62
2021/10/11 07:53:21;;;;;;;41.17;21.22;;;;;;;;;;363641;145;863787;-63
2021/10/11 07:54:22;;;;;;;50.97;22.83;;;;;;;;;;363970;145;856307;-61
2021/10/11 07:55:24;;;;;;;44.64;22.94;;;;;;;;;;363868;145;864277;-59
2021/10/11 07:56:26;;;;;;;40.91;22.06;;;;;;;;;;363805;145;864788;-59
2021/10/11 07:57:33;;;;;;;43.23;22.08;;;;;;;;;;363555;144;856292;-58
2021/10/11 07:58:34;;;;;;;40.62;21.12;;;;;;;;;;363198;145;856987;-61
2021/10/11 07:59:35;;;;;;;41.59;21.07;;;;;;;;;;363313;145;856534;-59
2021/10/11 08:00:37;;;;;;;41.41;20.97;;;;;;;;;;364443;145;864350;-61
2021/10/11 08:01:39;;;;;;;38.09;20.65;;;;;;;;;;363351;145;856745;-63
2021/10/11 08:02:41;;;;;;;37.36;22.51;;;;;;;;;;363481;145;864531;-62
2021/10/11 08:03:42;;;;;;;38.04;20.47;;;;;;;;;;362914;146;863763;-61
2021/10/11 08:04:44;;;;;;;37.88;20.08;;;;;;;;;;363187;145;863730;-60
2021/10/11 08:05:45;;;;;;;39.11;20.41;;;;;;;;;;363908;145;864177;-64
2021/10/11 08:06:47;;;;;;;35.31;20.10;;;;;;;;;;363652;145;856272;-63
2021/10/11 08:07:49;;;;;;;37.67;20.14;;;;;;;;;;362976;145;863539;-61
2021/10/11 08:08:50;;;;;;;51.11;21.66;;;;;;;;;;363660;145;856477;-62
2021/10/11 08:09:52;;;;;;;47.64;19.76;;;;;;;;;;364257;144;864024;-62
2021/10/11 08:10:54;;;;;;;37.44;20.76;;;;;;;;;;364823;145;858153;-61
2021/10/11 08:11:55;;;;;;;43.69;20.25;;;;;;;;;;363243;145;864573;-60
2021/10/11 08:12:57;;;;;;;37.71;20.07;;;;;;;;;;363466;144;863913;-61
2021/10/11 08:13:59;;;;;;;45.05;20.85;;;;;;;;;;364239;145;864043;-59
2021/10/11 08:15:01;;;;;;;39.57;20.47;;;;;;;;;;363310;146;856373;-60
2021/10/11 08:16:04;;;;;;;38.64;20.36;;;;;;;;;;363806;145;856190;-60
2021/10/11 08:17:06;;;;;;;41.29;20.89;;;;;;;;;;363727;145;856405;-63
2021/10/11 08:18:08;;;;;;;43.05;19.76;;;;;;;;;;363378;146;856436;-63
2021/10/11 08:19:09;;;;;;;36.30;17.69;;;;;;;;;;363922;145;856230;-64
2021/10/11 08:20:11;;;;;;;38.02;18.01;;;;;;;;;;363412;145;856828;-62
2021/10/11 08:21:13;;;;;;;32.15;17.96;;;;;;;;;;363534;147;856566;-63
2021/10/11 08:22:15;;;;;;;40.66;17.61;;;;;;;;;;363145;146;864001;-62
2021/10/11 08:23:17;;;;;;;33.87;17.72;;;;;;;;;;364547;146;864214;-60
2021/10/11 08:24:19;;;;;;;30.46;17.10;;;;;;;;;;355426;149;863933;-58
2021/10/11 08:25:20;;;;;;;32.94;17.66;;;;;;;;;;355069;147;856918;-60
2021/10/11 08:26:22;;;;;;;36.89;17.79;;;;;;;;;;364010;145;862301;-61
2021/10/11 08:27:25;;;;;;;36.74;18.19;;;;;;;;;;364387;145;856426;-65
2021/10/11 08:28:26;;;;;;;37.05;18.63;;;;;;;;;;363583;145;863966;-61
2021/10/11 08:29:28;;;;;;;32.94;18.68;;;;;;;;;;363932;145;863808;-60
2021/10/11 08:30:30;;;;;;;32.31;16.12;;;;;;;;;;364358;146;864233;-60
2021/10/11 08:31:32;;;;;;;30.70;16.69;;;;;;;;;;363050;147;856421;-60
2021/10/11 08:32:35;;;;;;;34.53;17.33;;;;;;;;;;363247;145;856471;-61
2021/10/11 08:33:36;;;;;;;27.73;16.15;;;;;;;;;;362657;145;856511;-60
2021/10/11 08:34:38;;;;;;;32.03;16.41;;;;;;;;;;365264;147;856425;-59
2021/10/11 08:35:39;;;;;;;30.83;15.68;;;;;;;;;;364153;144;856358;-58
2021/10/11 08:36:42;;;;;;;37.07;16.64;;;;;;;;;;364695;144;856204;-60
2021/10/11 08:37:43;;;;;;;31.20;16.81;;;;;;;;;;362005;147;856233;-61
2021/10/11 08:38:45;;;;;;;31.49;17.13;;;;;;;;;;362975;147;864479;-64
2021/10/11 08:39:47;;;;;;;35.11;17.30;;;;;;;;;;362586;146;856831;-60
2021/10/11 08:40:49;;;;;;;35.71;16.80;;;;;;;;;;364674;145;864851;-60
2021/10/11 08:41:52;;;;;;;31.33;16.10;;;;;;;;;;365403;145;856207;-61
2021/10/11 08:42:54;;;;;;;29.23;15.71;;;;;;;;;;364710;145;864022;-61
2021/10/11 08:43:55;;;;;;;31.55;15.77;;;;;;;;;;364824;145;856849;-62
2021/10/11 08:44:57;;;;;;;30.00;16.44;;;;;;;;;;362133;147;857021;-62
2021/10/11 08:45:58;;;;;;;33.04;17.16;;;;;;;;;;364466;145;856738;-61
2021/10/11 08:47:00;;;;;;;28.71;15.61;;;;;;;;;;356922;147;863960;-60
2021/10/11 08:48:02;;;;;;;30.81;15.26;;;;;;;;;;354864;149;856726;-60
2021/10/11 08:49:03;;;;;;;37.62;15.34;;;;;;;;;;363691;145;863889;-60
2021/10/11 08:50:06;;;;;;;35.47;16.62;;;;;;;;;;363550;146;864943;-61
2021/10/11 08:51:08;;;;;;;33.20;15.40;;;;;;;;;;365921;145;864072;-62
2021/10/11 08:52:10;;;;;;;36.87;14.49;;;;;;;;;;363720;146;856532;-65
2021/10/11 08:53:14;;;;;;;30.19;14.96;;;;;;;;;;363905;146;856959;-60
2021/10/11 08:54:15;;;;;;;27.24;12.46;;;;;;;;;;364727;147;857266;-59
2021/10/11 08:55:17;;;;;;;20.34;10.57;;;;;;;;;;364070;147;864365;-62
2021/10/11 08:56:19;;;;;;;22.59;10.01;;;;;;;;;;363610;147;863737;-61
2021/10/11 08:57:23;;;;;;;34.52;16.53;;;;;;;;;;363981;145;856276;-62
2021/10/11 08:58:25;;;;;;;21.19;10.54;;;;;;;;;;364907;147;856342;-61
2021/10/11 08:59:30;;;;;;;19.03;10.41;;;;;;;;;;362595;148;856515;-61
2021/10/11 09:00:32;;;;;;;17.43;10.07;;;;;;;;;;362962;147;864268;-61
2021/10/11 09:01:34;;;;;;;18.70;9.94;;;;;;;;;;364093;145;864113;-60
2021/10/11 09:02:35;;;;;;;17.81;9.31;;;;;;;;;;352626;150;856850;-61
2021/10/11 09:03:37;;;;;;;23.27;9.65;;;;;;;;;;353639;144;865049;-61
2021/10/11 09:04:45;;;;;;;14.26;7.77;;;;;;;;;;365193;144;856867;-61
2021/10/11 09:05:53;;;;;;;36.07;18.44;;;;;;;;;;363707;147;856986;-61
2021/10/11 09:07:02;;;;;;;37.30;16.17;;;;;;;;;;366330;147;856587;-62
2021/10/11 09:08:05;;;;;;;38.78;20.46;;;;;;;;;;364405;145;856362;-60
2021/10/11 09:09:10;;;;;;;21.50;12.74;;;;;;;;;;364117;147;856311;-61
2021/10/11 09:10:12;;;;;;;28.11;16.47;;;;;;;;;;366131;147;856382;-62
2021/10/11 09:11:14;;;;;;;33.88;18.96;;;;;;;;;;366381;146;856132;-60
2021/10/11 09:12:16;;;;;;;20.14;11.93;;;;;;;;;;364651;145;856375;-59
2021/10/11 09:13:18;;;;;;;26.59;12.87;;;;;;;;;;364990;146;859125;-60
2021/10/11 09:14:23;;;;;;;27.01;14.73;;;;;;;;;;365949;146;863676;-60
2021/10/11 09:15:28;;;;;;;25.07;11.03;;;;;;;;;;362138;145;856121;-61
2021/10/11 09:16:32;;;;;;;22.22;10.50;;;;;;;;;;364189;146;856454;-61
2021/10/11 09:17:40;;;;;;;21.27;10.41;;;;;;;;;;361775;146;856403;-61
2021/10/11 09:18:48;;;;;;;17.39;10.22;;;;;;;;;;360380;147;856310;-61
2021/10/11 09:19:57;;;;;;;15.91;9.54;;;;;;;;;;360284;146;856255;-60
2021/10/11 09:20:50;;;;;;;18.07;9.86;;;;;;;;;;359967;147;863990;-60
2021/10/11 09:21:51;;;;;;;19.78;9.79;;;;;;;;;;360910;147;856342;-60
2021/10/11 09:22:53;;;;;;;15.81;9.36;;;;;;;;;;358348;146;862386;-60
2021/10/11 09:24:15;;;;;;;25.79;10.69;;;;;;;;;;360539;148;856322;-60
2021/10/11 09:25:17;;;;;;;19.30;11.00;;;;;;;;;;360298;147;856321;-61
2021/10/11 09:26:20;;;;;;;21.54;11.79;;;;;;;;;;361633;146;856606;-60
2021/10/11 09:27:22;;;;;;;25.81;11.61;;;;;;;;;;358080;148;863617;-61
2021/10/11 09:28:25;;;;;;;20.01;10.62;;;;;;;;;;362416;147;856312;-61
2021/10/11 09:29:32;;;;;;;19.46;10.21;;;;;;;;;;357423;147;863788;-61
2021/10/11 09:30:34;;;;;;;20.37;9.61;;;;;;;;;;354678;151;856451;-61
2021/10/11 09:31:37;;;;;;;19.02;10.25;;;;;;;;;;354414;148;856707;-60
2021/10/11 09:32:38;;;;;;;17.37;9.42;;;;;;;;;;361096;147;856352;-62
2021/10/11 09:33:40;;;;;;;14.04;9.49;;;;;;;;;;361125;148;856187;-62
2021/10/11 09:34:42;;;;;;;17.71;10.17;;;;;;;;;;363219;147;856166;-63
2021/10/11 09:35:44;;;;;;;17.25;9.76;;;;;;;;;;362838;146;856259;-61
2021/10/11 09:36:58;;;;;;;16.87;10.19;;;;;;;;;;360484;147;857010;-61
2021/10/11 09:37:59;;;;;;;18.43;10.83;;;;;;;;;;361627;149;857038;-62
2021/10/11 09:39:02;;;;;;;22.73;10.09;;;;;;;;;;361900;147;856166;-60
2021/10/11 09:40:05;;;;;;;19.87;10.36;;;;;;;;;;352867;149;864394;-61
2021/10/11 09:41:06;;;;;;;14.79;10.21;;;;;;;;;;354874;149;856167;-60
2021/10/11 09:42:14;;;;;;;14.71;9.31;;;;;;;;;;359000;147;856337;-61
2021/10/11 09:43:16;;;;;;;21.95;10.78;;;;;;;;;;359917;146;863904;-60
2021/10/11 09:44:18;;;;;;;22.00;10.86;;;;;;;;;;358941;148;856231;-61
2021/10/11 09:45:23;;;;;;;19.46;11.87;;;;;;;;;;357341;147;856253;-62
2021/10/11 09:46:29;;;;;;;22.56;11.88;;;;;;;;;;362305;147;856207;-60
2021/10/11 09:47:36;;;;;;;19.73;11.53;;;;;;;;;;360351;147;856410;-61
2021/10/11 09:48:34;;;;;;;21.49;12.12;;;;;;;;;;357528;148;856854;-61
2021/10/11 09:49:36;;;;;;;22.57;11.86;;;;;;;;;;359844;147;856745;-62
2021/10/11 09:50:38;;;;;;;22.55;11.59;;;;;;;;;;360226;147;863868;-61
2021/10/11 09:51:41;;;;;;;25.83;11.95;;;;;;;;;;358621;148;863871;-61
2021/10/11 09:52:43;;;;;;;29.85;11.74;;;;;;;;;;360826;147;856350;-60
2021/10/11 09:53:45;;;;;;;25.23;11.79;;;;;;;;;;361412;147;864841;-60
2021/10/11 09:54:47;;;;;;;19.86;12.37;;;;;;;;;;360532;148;857736;-61
2021/10/11 09:55:49;;;;;;;23.51;12.16;;;;;;;;;;359323;147;859025;-62
2021/10/11 09:56:52;;;;;;;23.20;11.97;;;;;;;;;;361372;148;858049;-61
2021/10/11 09:57:53;;;;;;;21.36;11.68;;;;;;;;;;351743;148;857300;-62
2021/10/11 09:58:55;;;;;;;23.59;11.24;;;;;;;;;;351734;151;864082;-60
2021/10/11 09:59:58;;;;;;;24.57;11.57;;;;;;;;;;346954;153;860605;-61
2021/10/11 10:01:00;;;;;;;24.19;11.37;;;;;;;;;;344996;152;867436;-61
2021/10/11 10:02:02;;;;;;;32.99;14.27;;;;;;;;;;347641;154;857674;-60
2021/10/11 10:03:04;;;;;;;25.96;11.60;;;;;;;;;;347073;153;858637;-60
2021/10/11 10:04:05;;;;;;;27.25;12.43;;;;;;;;;;347483;151;864896;-60
2021/10/11 10:05:11;;;;;;;32.91;11.83;;;;;;;;;;353516;150;857308;-61
2021/10/11 10:06:13;;;;;;;18.69;10.11;;;;;;;;;;353386;150;864060;-60
2021/10/11 10:07:16;;;;;;;21.81;10.19;;;;;;;;;;353089;150;856338;-61
2021/10/11 10:08:22;;;;;;;19.21;10.54;;;;;;;;;;352520;150;863713;-61
2021/10/11 10:09:24;;;;;;;23.67;10.71;;;;;;;;;;347160;151;856189;-60
2021/10/11 10:10:26;;;;;;;15.83;10.39;;;;;;;;;;342643;151;856689;-60
2021/10/11 10:11:28;;;;;;;23.79;10.40;;;;;;;;;;347433;151;864676;-60
2021/10/11 10:12:30;;;;;;;15.22;9.79;;;;;;;;;;347827;153;857130;-59
2021/10/11 10:13:36;;;;;;;14.88;9.47;;;;;;;;;;352517;150;857582;-60
2021/10/11 10:14:36;;;;;;;17.76;10.64;;;;;;;;;;351006;151;856483;-60
2021/10/11 10:15:38;;;;;;;20.25;9.60;;;;;;;;;;352266;150;856532;-60
2021/10/11 10:16:42;;;;;;;23.15;9.45;;;;;;;;;;353830;150;857059;-60
2021/10/11 10:17:45;;;;;;;15.68;8.79;;;;;;;;;;353529;150;856278;-60
2021/10/11 10:18:46;;;;;;;17.55;8.88;;;;;;;;;;351895;149;856776;-61
2021/10/11 10:19:48;;;;;;;16.02;8.39;;;;;;;;;;347673;153;856327;-61
2021/10/11 10:20:52;;;;;;;16.57;8.52;;;;;;;;;;350675;151;862054;-60
2021/10/11 10:21:53;;;;;;;15.44;7.60;;;;;;;;;;350163;151;856855;-60
2021/10/11 10:22:55;;;;;;;14.80;7.45;;;;;;;;;;357415;150;864652;-62
2021/10/11 10:23:57;;;;;;;17.91;7.21;;;;;;;;;;351714;150;856651;-61
2021/10/11 10:25:05;;;;;;;16.54;7.16;;;;;;;;;;354779;149;856553;-61
2021/10/11 10:26:09;;;;;;;14.08;6.94;;;;;;;;;;353025;150;864172;-61
2021/10/11 10:27:11;;;;;;;14.58;7.41;;;;;;;;;;353677;149;856273;-60
2021/10/11 10:28:14;;;;;;;17.11;7.97;;;;;;;;;;354304;149;856367;-61
2021/10/11 10:29:19;;;;;;;15.76;7.59;;;;;;;;;;353124;150;856363;-60
2021/10/11 10:30:23;;;;;;;15.14;8.73;;;;;;;;;;352227;150;856359;-59
2021/10/11 10:31:26;;;;;;;21.04;7.73;;;;;;;;;;348974;153;856852;-60
2021/10/11 10:32:28;;;;;;;21.46;9.83;;;;;;;;;;349199;151;856458;-60
2021/10/11 10:33:39;;;;;;;16.43;8.56;;;;;;;;;;350612;152;856362;-60
2021/10/11 10:34:41;;;;;;;20.66;10.39;;;;;;;;;;351577;152;856342;-61
2021/10/11 10:35:46;;;;;;;15.78;8.71;;;;;;;;;;351630;150;856353;-60
2021/10/11 10:36:50;;;;;;;20.57;8.18;;;;;;;;;;349629;152;863945;-61
2021/10/11 10:37:51;;;;;;;17.68;8.39;;;;;;;;;;347857;150;856939;-61
2021/10/11 10:39:00;;;;;;;15.63;7.78;;;;;;;;;;350287;150;856269;-60
2021/10/11 10:40:08;;;;;;;12.49;7.59;;;;;;;;;;350975;152;864004;-62
2021/10/11 10:41:11;;;;;;;18.93;7.67;;;;;;;;;;353177;152;856229;-60
2021/10/11 10:42:26;;;;;;;16.37;7.57;;;;;;;;;;349767;150;856275;-59
2021/10/11 10:43:26;;;;;;;11.76;6.49;;;;;;;;;;349488;151;856230;-61
2021/10/11 10:44:28;;;;;;;13.82;6.48;;;;;;;;;;347318;153;856855;-61
2021/10/11 10:45:31;;;;;;;11.96;6.44;;;;;;;;;;345946;154;864245;-60
2021/10/11 10:46:33;;;;;;;12.77;6.64;;;;;;;;;;350915;150;864144;-61
2021/10/11 10:47:37;;;;;;;17.01;7.63;;;;;;;;;;351022;151;857027;-61
2021/10/11 10:48:48;;;;;;;13.32;7.88;;;;;;;;;;348548;151;860176;-60
2021/10/11 10:49:50;;;;;;;13.70;7.53;;;;;;;;;;352605;149;856645;-61
2021/10/11 10:50:55;;;;;;;12.67;8.12;;;;;;;;;;347220;152;856205;-60
2021/10/11 10:51:56;;;;;;;16.06;7.67;;;;;;;;;;352916;150;856299;-60
2021/10/11 10:52:59;;;;;;;19.23;8.83;;;;;;;;;;351529;151;856891;-62
2021/10/11 10:54:01;;;;;;;24.53;9.67;;;;;;;;;;352783;150;856375;-60
2021/10/11 10:55:03;;;;;;;21.39;7.89;;;;;;;;;;345396;153;856309;-60
2021/10/11 10:56:06;;;;;;;14.15;7.73;;;;;;;;;;350647;150;856513;-60
2021/10/11 10:57:09;;;;;;;14.09;7.59;;;;;;;;;;353589;150;856820;-63
2021/10/11 10:58:13;;;;;;;16.67;8.84;;;;;;;;;;353961;151;856270;-61
2021/10/11 10:59:14;;;;;;;13.26;7.69;;;;;;;;;;347828;151;856224;-60
2021/10/11 11:00:17;;;;;;;10.91;6.50;;;;;;;;;;352221;152;856331;-61
2021/10/11 11:01:25;;;;;;;12.99;5.98;;;;;;;;;;348391;151;864498;-61
2021/10/11 11:02:28;;;;;;;12.74;7.98;;;;;;;;;;352601;150;863809;-61
2021/10/11 11:03:30;;;;;;;18.74;8.56;;;;;;;;;;355909;149;856397;-62
2021/10/11 11:04:32;;;;;;;13.53;6.54;;;;;;;;;;355256;149;864126;-61
2021/10/11 11:05:34;;;;;;;13.54;6.33;;;;;;;;;;355592;151;856995;-61
2021/10/11 11:06:37;;;;;;;14.89;8.93;;;;;;;;;;354378;150;856598;-60
2021/10/11 11:07:39;;;;;;;13.45;8.52;;;;;;;;;;354927;149;864054;-60
2021/10/11 11:08:41;;;;;;;14.41;9.97;;;;;;;;;;354081;150;856894;-61
2021/10/11 11:09:43;;;;;;;10.88;7.39;;;;;;;;;;354982;149;856434;-60
2021/10/11 11:10:47;;;;;;;10.14;6.25;;;;;;;;;;353604;150;856308;-62
2021/10/11 11:11:49;;;;;;;17.13;9.23;;;;;;;;;;352941;150;856763;-61
2021/10/11 11:12:59;;;;;;;14.99;9.37;;;;;;;;;;353607;150;856184;-62
2021/10/11 11:14:01;;;;;;;13.38;7.47;;;;;;;;;;354842;149;856992;-61
2021/10/11 11:15:04;;;;;;;14.67;8.24;;;;;;;;;;355186;149;856411;-61
2021/10/11 11:16:06;;;;;;;13.86;7.41;;;;;;;;;;355671;151;856444;-60
2021/10/11 11:17:13;;;;;;;12.25;7.51;;;;;;;;;;354997;149;856297;-60
2021/10/11 11:18:13;;;;;;;11.38;8.21;;;;;;;;;;355966;149;857185;-62
2021/10/11 11:19:16;;;;;;;13.74;7.98;;;;;;;;;;357359;149;856350;-60
2021/10/11 11:20:20;;;;;;;16.64;8.36;;;;;;;;;;358013;149;856323;-62
2021/10/11 11:21:22;;;;;;;21.47;9.12;;;;;;;;;;356989;149;856385;-60
2021/10/11 11:22:27;;;;;;;12.30;7.64;;;;;;;;;;355865;150;864573;-60
2021/10/11 11:23:34;;;;;;;16.78;8.92;;;;;;;;;;353740;149;864741;-61
2021/10/11 11:24:35;;;;;;;14.29;8.67;;;;;;;;;;357915;149;857079;-62
2021/10/11 11:25:38;;;;;;;13.16;7.84;;;;;;;;;;358082;148;856417;-61
2021/10/11 11:26:44;;;;;;;14.46;7.75;;;;;;;;;;358690;148;857231;-61
2021/10/11 11:27:46;;;;;;;13.29;7.32;;;;;;;;;;355165;150;856624;-60
2021/10/11 11:28:48;;;;;;;13.32;7.59;;;;;;;;;;357666;149;856239;-61
2021/10/11 11:29:53;;;;;;;12.20;6.76;;;;;;;;;;357210;148;856544;-62
2021/10/11 11:30:57;;;;;;;11.73;6.24;;;;;;;;;;357218;148;856414;-61